sensor_id;sensor_type;location;lat;lon;timestamp;temperature;humidity
54006;DHT22;39919;38.160;-122.260;2023-06-22T00:00:21;23.90;52.10
54006;DHT22;39919;38.160;-122.260;2023-06-22T00:02:52;23.90;51.90
54006;DHT22;39919;38.160;-122.260;2023-06-22T00:05:21;23.90;51.90
54006;DHT22;39919;38.160;-122.260;2023-06-22T00:07:52;23.90;51.60
54006;DHT22;39919;38.160;-122.260;2023-06-22T00:10:23;23.80;52.60
54006;DHT22;39919;38.160;-122.260;2023-06-22T00:12:53;23.80;52.90
54006;DHT22;39919;38.160;-122.260;2023-06-22T00:15:25;23.80;57.20
54006;DHT22;39919;38.160;-122.260;2023-06-22T00:17:56;23.80;55.70
54006;DHT22;39919;38.160;-122.260;2023-06-22T00:20:29;23.70;57.20
54006;DHT22;39919;38.160;-122.260;2023-06-22T00:22:59;23.70;57.70
54006;DHT22;39919;38.160;-122.260;2023-06-22T00:25:29;23.70;59.50
54006;DHT22;39919;38.160;-122.260;2023-06-22T00:27:58;23.70;58.70
54006;DHT22;39919;38.160;-122.260;2023-06-22T00:30:30;23.70;57.50
54006;DHT22;39919;38.160;-122.260;2023-06-22T00:33:04;23.60;58.80
54006;DHT22;39919;38.160;-122.260;2023-06-22T00:35:34;23.60;61.80
54006;DHT22;39919;38.160;-122.260;2023-06-22T00:38:08;23.60;62.90
54006;DHT22;39919;38.160;-122.260;2023-06-22T00:40:39;23.50;54.20
54006;DHT22;39919;38.160;-122.260;2023-06-22T00:43:13;23.40;55.10
54006;DHT22;39919;38.160;-122.260;2023-06-22T00:45:49;23.40;54.90
54006;DHT22;39919;38.160;-122.260;2023-06-22T00:48:22;23.30;55.20
54006;DHT22;39919;38.160;-122.260;2023-06-22T00:50:51;23.40;56.50
54006;DHT22;39919;38.160;-122.260;2023-06-22T00:53:23;23.30;57.80
54006;DHT22;39919;38.160;-122.260;2023-06-22T00:55:53;23.30;59.90
54006;DHT22;39919;38.160;-122.260;2023-06-22T00:58:25;23.30;63.80
54006;DHT22;39919;38.160;-122.260;2023-06-22T01:01:07;23.10;55.80
54006;DHT22;39919;38.160;-122.260;2023-06-22T01:03:51;23.10;56.00
54006;DHT22;39919;38.160;-122.260;2023-06-22T01:06:29;23.10;56.20
54006;DHT22;39919;38.160;-122.260;2023-06-22T01:09:10;23.00;56.50
54006;DHT22;39919;38.160;-122.260;2023-06-22T01:11:47;23.00;56.50
54006;DHT22;39919;38.160;-122.260;2023-06-22T01:14:25;22.90;56.60
54006;DHT22;39919;38.160;-122.260;2023-06-22T01:17:02;22.90;56.50
54006;DHT22;39919;38.160;-122.260;2023-06-22T01:19:45;22.80;56.90
54006;DHT22;39919;38.160;-122.260;2023-06-22T01:22:24;22.80;57.10
54006;DHT22;39919;38.160;-122.260;2023-06-22T01:25:07;22.80;57.20
54006;DHT22;39919;38.160;-122.260;2023-06-22T01:27:45;22.70;57.70
54006;DHT22;39919;38.160;-122.260;2023-06-22T01:30:19;22.60;57.90
54006;DHT22;39919;38.160;-122.260;2023-06-22T01:32:49;22.50;58.30
54006;DHT22;39919;38.160;-122.260;2023-06-22T01:35:20;22.50;58.40
54006;DHT22;39919;38.160;-122.260;2023-06-22T01:37:52;22.40;58.70
54006;DHT22;39919;38.160;-122.260;2023-06-22T01:40:25;22.40;60.60
54006;DHT22;39919;38.160;-122.260;2023-06-22T01:42:57;22.40;66.80
54006;DHT22;39919;38.160;-122.260;2023-06-22T01:45:28;22.30;68.30
54006;DHT22;39919;38.160;-122.260;2023-06-22T01:47:58;22.30;61.20
54006;DHT22;39919;38.160;-122.260;2023-06-22T01:50:28;22.20;60.30
54006;DHT22;39919;38.160;-122.260;2023-06-22T01:53:00;22.10;60.70
54006;DHT22;39919;38.160;-122.260;2023-06-22T01:55:33;22.10;61.60
54006;DHT22;39919;38.160;-122.260;2023-06-22T01:58:06;22.00;60.30
54006;DHT22;39919;38.160;-122.260;2023-06-22T02:00:42;22.10;66.80
54006;DHT22;39919;38.160;-122.260;2023-06-22T02:03:17;22.00;71.90
54006;DHT22;39919;38.160;-122.260;2023-06-22T02:05:50;21.90;64.00
54006;DHT22;39919;38.160;-122.260;2023-06-22T02:08:22;21.80;58.10
54006;DHT22;39919;38.160;-122.260;2023-06-22T02:10:56;21.70;67.30
54006;DHT22;39919;38.160;-122.260;2023-06-22T02:13:27;21.70;57.40
54006;DHT22;39919;38.160;-122.260;2023-06-22T02:16:00;21.70;57.50
54006;DHT22;39919;38.160;-122.260;2023-06-22T02:18:30;21.60;57.50
54006;DHT22;39919;38.160;-122.260;2023-06-22T02:21:03;21.60;57.80
54006;DHT22;39919;38.160;-122.260;2023-06-22T02:23:33;21.50;57.50
54006;DHT22;39919;38.160;-122.260;2023-06-22T02:26:15;21.40;57.40
54006;DHT22;39919;38.160;-122.260;2023-06-22T02:28:47;21.30;57.40
54006;DHT22;39919;38.160;-122.260;2023-06-22T02:31:21;21.30;57.30
54006;DHT22;39919;38.160;-122.260;2023-06-22T02:33:58;21.20;57.50
54006;DHT22;39919;38.160;-122.260;2023-06-22T02:36:27;21.10;57.40
54006;DHT22;39919;38.160;-122.260;2023-06-22T02:38:58;21.00;57.30
54006;DHT22;39919;38.160;-122.260;2023-06-22T02:41:28;21.00;57.60
54006;DHT22;39919;38.160;-122.260;2023-06-22T02:43:59;20.90;57.80
54006;DHT22;39919;38.160;-122.260;2023-06-22T02:46:32;20.80;57.90
54006;DHT22;39919;38.160;-122.260;2023-06-22T02:49:02;20.70;58.10
54006;DHT22;39919;38.160;-122.260;2023-06-22T02:51:34;20.60;58.40
54006;DHT22;39919;38.160;-122.260;2023-06-22T02:54:03;20.60;58.70
54006;DHT22;39919;38.160;-122.260;2023-06-22T02:56:32;20.50;72.90
54006;DHT22;39919;38.160;-122.260;2023-06-22T02:59:04;20.50;58.50
54006;DHT22;39919;38.160;-122.260;2023-06-22T03:01:35;20.40;58.70
54006;DHT22;39919;38.160;-122.260;2023-06-22T03:04:06;20.30;58.70
54006;DHT22;39919;38.160;-122.260;2023-06-22T03:06:38;20.20;59.00
54006;DHT22;39919;38.160;-122.260;2023-06-22T03:09:09;20.10;58.70
54006;DHT22;39919;38.160;-122.260;2023-06-22T03:11:43;20.10;70.00
54006;DHT22;39919;38.160;-122.260;2023-06-22T03:14:12;20.00;80.60
54006;DHT22;39919;38.160;-122.260;2023-06-22T03:16:43;19.90;73.60
54006;DHT22;39919;38.160;-122.260;2023-06-22T03:19:12;19.80;59.20
54006;DHT22;39919;38.160;-122.260;2023-06-22T03:21:42;19.70;59.20
54006;DHT22;39919;38.160;-122.260;2023-06-22T03:24:14;19.60;59.30
54006;DHT22;39919;38.160;-122.260;2023-06-22T03:26:43;19.60;59.20
54006;DHT22;39919;38.160;-122.260;2023-06-22T03:29:13;19.50;59.70
54006;DHT22;39919;38.160;-122.260;2023-06-22T03:31:46;19.40;59.80
54006;DHT22;39919;38.160;-122.260;2023-06-22T03:34:18;19.30;61.70
54006;DHT22;39919;38.160;-122.260;2023-06-22T03:36:48;19.10;64.60
54006;DHT22;39919;38.160;-122.260;2023-06-22T03:39:17;19.20;64.80
54006;DHT22;39919;38.160;-122.260;2023-06-22T03:41:47;19.00;90.50
54006;DHT22;39919;38.160;-122.260;2023-06-22T03:49:27;18.60;94.80
54006;DHT22;39919;38.160;-122.260;2023-06-22T04:40:01;17.30;68.00
54006;DHT22;39919;38.160;-122.260;2023-06-22T04:42:33;17.20;68.70
54006;DHT22;39919;38.160;-122.260;2023-06-22T04:45:15;17.10;68.40
54006;DHT22;39919;38.160;-122.260;2023-06-22T04:47:59;17.00;68.50
54006;DHT22;39919;38.160;-122.260;2023-06-22T04:50:29;16.90;68.00
54006;DHT22;39919;38.160;-122.260;2023-06-22T04:52:59;16.80;68.20
54006;DHT22;39919;38.160;-122.260;2023-06-22T04:55:32;16.80;68.00
54006;DHT22;39919;38.160;-122.260;2023-06-22T04:58:08;16.80;68.50
54006;DHT22;39919;38.160;-122.260;2023-06-22T05:00:42;16.70;68.40
54006;DHT22;39919;38.160;-122.260;2023-06-22T05:03:15;16.60;69.00
54006;DHT22;39919;38.160;-122.260;2023-06-22T05:05:45;16.60;69.00
54006;DHT22;39919;38.160;-122.260;2023-06-22T05:08:22;16.50;69.10
54006;DHT22;39919;38.160;-122.260;2023-06-22T05:11:05;16.50;69.20
54006;DHT22;39919;38.160;-122.260;2023-06-22T05:13:47;16.40;69.80
54006;DHT22;39919;38.160;-122.260;2023-06-22T05:16:22;16.30;69.50
54006;DHT22;39919;38.160;-122.260;2023-06-22T05:18:58;16.20;69.30
54006;DHT22;39919;38.160;-122.260;2023-06-22T05:21:30;16.20;69.20
54006;DHT22;39919;38.160;-122.260;2023-06-22T05:24:02;16.10;69.30
54006;DHT22;39919;38.160;-122.260;2023-06-22T05:26:36;16.00;69.60
54006;DHT22;39919;38.160;-122.260;2023-06-22T05:29:09;16.00;69.70
54006;DHT22;39919;38.160;-122.260;2023-06-22T05:31:38;15.90;70.10
54006;DHT22;39919;38.160;-122.260;2023-06-22T05:34:14;15.90;70.30
54006;DHT22;39919;38.160;-122.260;2023-06-22T05:36:49;15.80;70.20
54006;DHT22;39919;38.160;-122.260;2023-06-22T05:39:18;15.70;70.20
54006;DHT22;39919;38.160;-122.260;2023-06-22T05:41:50;15.70;70.30
54006;DHT22;39919;38.160;-122.260;2023-06-22T05:44:20;15.60;70.40
54006;DHT22;39919;38.160;-122.260;2023-06-22T05:46:49;15.50;70.10
54006;DHT22;39919;38.160;-122.260;2023-06-22T05:49:20;15.50;70.30
54006;DHT22;39919;38.160;-122.260;2023-06-22T05:51:59;15.40;70.00
54006;DHT22;39919;38.160;-122.260;2023-06-22T05:54:33;15.30;70.30
54006;DHT22;39919;38.160;-122.260;2023-06-22T05:57:25;15.30;70.60
54006;DHT22;39919;38.160;-122.260;2023-06-22T05:59:58;15.20;71.40
54006;DHT22;39919;38.160;-122.260;2023-06-22T06:02:30;15.20;71.70
54006;DHT22;39919;38.160;-122.260;2023-06-22T06:05:18;15.10;72.80
54006;DHT22;39919;38.160;-122.260;2023-06-22T06:08:00;15.00;72.50
54006;DHT22;39919;38.160;-122.260;2023-06-22T06:10:30;15.00;73.70
54006;DHT22;39919;38.160;-122.260;2023-06-22T06:13:01;14.90;73.60
54006;DHT22;39919;38.160;-122.260;2023-06-22T06:15:35;14.90;73.80
54006;DHT22;39919;38.160;-122.260;2023-06-22T06:18:14;14.80;73.20
54006;DHT22;39919;38.160;-122.260;2023-06-22T06:20:51;14.80;74.10
54006;DHT22;39919;38.160;-122.260;2023-06-22T06:23:33;14.70;73.80
54006;DHT22;39919;38.160;-122.260;2023-06-22T06:26:02;14.70;74.30
54006;DHT22;39919;38.160;-122.260;2023-06-22T06:28:37;14.60;75.10
54006;DHT22;39919;38.160;-122.260;2023-06-22T06:31:06;14.60;75.90
54006;DHT22;39919;38.160;-122.260;2023-06-22T06:33:39;14.60;76.30
54006;DHT22;39919;38.160;-122.260;2023-06-22T06:36:13;14.60;76.10
54006;DHT22;39919;38.160;-122.260;2023-06-22T06:38:47;14.50;76.40
54006;DHT22;39919;38.160;-122.260;2023-06-22T06:41:17;14.50;76.20
54006;DHT22;39919;38.160;-122.260;2023-06-22T06:43:48;14.50;76.00
54006;DHT22;39919;38.160;-122.260;2023-06-22T06:46:27;14.50;76.20
54006;DHT22;39919;38.160;-122.260;2023-06-22T06:48:59;14.50;76.60
54006;DHT22;39919;38.160;-122.260;2023-06-22T06:51:42;14.50;76.90
54006;DHT22;39919;38.160;-122.260;2023-06-22T06:54:11;14.60;76.20
54006;DHT22;39919;38.160;-122.260;2023-06-22T06:56:40;14.60;76.20
54006;DHT22;39919;38.160;-122.260;2023-06-22T06:59:15;14.60;75.80
54006;DHT22;39919;38.160;-122.260;2023-06-22T07:01:44;14.70;75.60
54006;DHT22;39919;38.160;-122.260;2023-06-22T07:04:15;14.60;75.40
54006;DHT22;39919;38.160;-122.260;2023-06-22T07:06:46;14.70;75.60
54006;DHT22;39919;38.160;-122.260;2023-06-22T07:09:15;14.70;75.30
54006;DHT22;39919;38.160;-122.260;2023-06-22T07:11:45;14.80;75.60
54006;DHT22;39919;38.160;-122.260;2023-06-22T07:14:15;14.80;75.90
54006;DHT22;39919;38.160;-122.260;2023-06-22T07:16:44;14.80;76.30
54006;DHT22;39919;38.160;-122.260;2023-06-22T07:19:14;14.90;76.40
54006;DHT22;39919;38.160;-122.260;2023-06-22T07:21:45;14.90;76.20
54006;DHT22;39919;38.160;-122.260;2023-06-22T07:24:14;14.90;75.80
54006;DHT22;39919;38.160;-122.260;2023-06-22T07:26:43;14.90;76.00
54006;DHT22;39919;38.160;-122.260;2023-06-22T07:29:12;15.00;75.70
54006;DHT22;39919;38.160;-122.260;2023-06-22T07:31:42;15.00;76.10
54006;DHT22;39919;38.160;-122.260;2023-06-22T07:34:11;15.00;77.00
54006;DHT22;39919;38.160;-122.260;2023-06-22T07:36:40;15.00;76.60
54006;DHT22;39919;38.160;-122.260;2023-06-22T07:39:11;15.10;75.90
54006;DHT22;39919;38.160;-122.260;2023-06-22T07:41:41;15.10;75.60
54006;DHT22;39919;38.160;-122.260;2023-06-22T07:44:13;15.10;75.50
54006;DHT22;39919;38.160;-122.260;2023-06-22T07:46:42;15.10;75.10
54006;DHT22;39919;38.160;-122.260;2023-06-22T07:49:11;15.10;75.20
54006;DHT22;39919;38.160;-122.260;2023-06-22T07:51:40;15.20;75.40
54006;DHT22;39919;38.160;-122.260;2023-06-22T07:54:12;15.20;75.20
54006;DHT22;39919;38.160;-122.260;2023-06-22T07:56:42;15.20;76.30
54006;DHT22;39919;38.160;-122.260;2023-06-22T07:59:11;15.20;76.00
54006;DHT22;39919;38.160;-122.260;2023-06-22T08:01:40;15.20;75.50
54006;DHT22;39919;38.160;-122.260;2023-06-22T08:04:10;15.20;75.50
54006;DHT22;39919;38.160;-122.260;2023-06-22T08:06:39;15.20;75.50
54006;DHT22;39919;38.160;-122.260;2023-06-22T08:09:10;15.30;75.50
54006;DHT22;39919;38.160;-122.260;2023-06-22T08:11:39;15.20;76.50
54006;DHT22;39919;38.160;-122.260;2023-06-22T08:14:08;15.20;76.30
54006;DHT22;39919;38.160;-122.260;2023-06-22T08:16:37;15.20;75.70
54006;DHT22;39919;38.160;-122.260;2023-06-22T08:19:08;15.20;75.50
54006;DHT22;39919;38.160;-122.260;2023-06-22T08:21:37;15.30;75.40
54006;DHT22;39919;38.160;-122.260;2023-06-22T08:24:07;15.30;75.30
54006;DHT22;39919;38.160;-122.260;2023-06-22T08:26:38;15.30;76.00
54006;DHT22;39919;38.160;-122.260;2023-06-22T08:29:07;15.30;75.80
54006;DHT22;39919;38.160;-122.260;2023-06-22T08:31:36;15.30;75.40
54006;DHT22;39919;38.160;-122.260;2023-06-22T08:34:05;15.30;76.00
54006;DHT22;39919;38.160;-122.260;2023-06-22T08:36:37;15.30;76.20
54006;DHT22;39919;38.160;-122.260;2023-06-22T08:39:08;15.30;76.60
54006;DHT22;39919;38.160;-122.260;2023-06-22T08:41:39;15.30;76.10
54006;DHT22;39919;38.160;-122.260;2023-06-22T08:44:08;15.30;75.90
54006;DHT22;39919;38.160;-122.260;2023-06-22T08:46:37;15.30;75.80
54006;DHT22;39919;38.160;-122.260;2023-06-22T08:49:07;15.30;76.70
54006;DHT22;39919;38.160;-122.260;2023-06-22T08:51:37;15.30;76.80
54006;DHT22;39919;38.160;-122.260;2023-06-22T08:54:07;15.30;76.80
54006;DHT22;39919;38.160;-122.260;2023-06-22T08:56:37;15.30;76.70
54006;DHT22;39919;38.160;-122.260;2023-06-22T08:59:10;15.20;76.30
54006;DHT22;39919;38.160;-122.260;2023-06-22T09:01:39;15.20;77.00
54006;DHT22;39919;38.160;-122.260;2023-06-22T09:04:15;15.20;76.60
54006;DHT22;39919;38.160;-122.260;2023-06-22T09:06:44;15.20;76.20
54006;DHT22;39919;38.160;-122.260;2023-06-22T09:09:14;15.20;76.40
54006;DHT22;39919;38.160;-122.260;2023-06-22T09:11:44;15.20;76.40
54006;DHT22;39919;38.160;-122.260;2023-06-22T09:14:14;15.20;76.00
54006;DHT22;39919;38.160;-122.260;2023-06-22T09:16:43;15.20;76.00
54006;DHT22;39919;38.160;-122.260;2023-06-22T09:19:12;15.20;75.90
54006;DHT22;39919;38.160;-122.260;2023-06-22T09:21:41;15.30;75.50
54006;DHT22;39919;38.160;-122.260;2023-06-22T09:24:10;15.20;75.40
54006;DHT22;39919;38.160;-122.260;2023-06-22T09:26:40;15.20;75.60
54006;DHT22;39919;38.160;-122.260;2023-06-22T09:29:11;15.20;75.50
54006;DHT22;39919;38.160;-122.260;2023-06-22T09:31:40;15.20;75.40
54006;DHT22;39919;38.160;-122.260;2023-06-22T09:34:09;15.20;75.20
54006;DHT22;39919;38.160;-122.260;2023-06-22T09:36:38;15.20;75.00
54006;DHT22;39919;38.160;-122.260;2023-06-22T09:39:08;15.10;74.80
54006;DHT22;39919;38.160;-122.260;2023-06-22T09:41:37;15.20;74.70
54006;DHT22;39919;38.160;-122.260;2023-06-22T09:44:06;15.10;74.60
54006;DHT22;39919;38.160;-122.260;2023-06-22T09:46:37;15.10;74.40
54006;DHT22;39919;38.160;-122.260;2023-06-22T09:49:06;15.10;74.50
54006;DHT22;39919;38.160;-122.260;2023-06-22T09:51:35;15.10;74.30
54006;DHT22;39919;38.160;-122.260;2023-06-22T09:54:04;15.10;74.40
54006;DHT22;39919;38.160;-122.260;2023-06-22T09:56:33;15.10;74.50
54006;DHT22;39919;38.160;-122.260;2023-06-22T09:59:04;15.00;74.40
54006;DHT22;39919;38.160;-122.260;2023-06-22T10:01:33;15.00;74.60
54006;DHT22;39919;38.160;-122.260;2023-06-22T10:04:04;15.00;74.50
54006;DHT22;39919;38.160;-122.260;2023-06-22T10:06:33;15.00;74.80
54006;DHT22;39919;38.160;-122.260;2023-06-22T10:09:03;15.00;74.70
54006;DHT22;39919;38.160;-122.260;2023-06-22T10:11:32;15.00;74.70
54006;DHT22;39919;38.160;-122.260;2023-06-22T10:14:03;14.90;74.40
54006;DHT22;39919;38.160;-122.260;2023-06-22T10:16:33;14.90;74.40
54006;DHT22;39919;38.160;-122.260;2023-06-22T10:19:04;14.90;74.60
54006;DHT22;39919;38.160;-122.260;2023-06-22T10:21:33;14.90;74.50
54006;DHT22;39919;38.160;-122.260;2023-06-22T10:24:03;14.90;74.60
54006;DHT22;39919;38.160;-122.260;2023-06-22T10:26:34;14.90;74.70
54006;DHT22;39919;38.160;-122.260;2023-06-22T10:29:04;14.80;74.90
54006;DHT22;39919;38.160;-122.260;2023-06-22T10:31:33;14.90;75.30
54006;DHT22;39919;38.160;-122.260;2023-06-22T10:34:06;14.80;74.90
54006;DHT22;39919;38.160;-122.260;2023-06-22T10:36:36;14.80;75.00
54006;DHT22;39919;38.160;-122.260;2023-06-22T10:39:05;14.80;74.80
54006;DHT22;39919;38.160;-122.260;2023-06-22T10:41:35;14.80;74.80
54006;DHT22;39919;38.160;-122.260;2023-06-22T10:44:04;14.80;74.80
54006;DHT22;39919;38.160;-122.260;2023-06-22T10:46:34;14.70;74.80
54006;DHT22;39919;38.160;-122.260;2023-06-22T10:49:04;14.70;75.10
54006;DHT22;39919;38.160;-122.260;2023-06-22T10:51:33;14.70;75.10
54006;DHT22;39919;38.160;-122.260;2023-06-22T10:54:03;14.70;74.90
54006;DHT22;39919;38.160;-122.260;2023-06-22T10:56:32;14.70;75.00
54006;DHT22;39919;38.160;-122.260;2023-06-22T10:59:02;14.70;74.70
54006;DHT22;39919;38.160;-122.260;2023-06-22T11:01:31;14.70;74.60
54006;DHT22;39919;38.160;-122.260;2023-06-22T11:04:00;14.60;74.70
54006;DHT22;39919;38.160;-122.260;2023-06-22T11:06:31;14.60;75.00
54006;DHT22;39919;38.160;-122.260;2023-06-22T11:09:00;14.60;75.00
54006;DHT22;39919;38.160;-122.260;2023-06-22T11:11:30;14.60;75.00
54006;DHT22;39919;38.160;-122.260;2023-06-22T11:13:59;14.60;75.40
54006;DHT22;39919;38.160;-122.260;2023-06-22T11:16:28;14.60;75.50
54006;DHT22;39919;38.160;-122.260;2023-06-22T11:18:57;14.50;75.40
54006;DHT22;39919;38.160;-122.260;2023-06-22T11:21:29;14.50;75.30
54006;DHT22;39919;38.160;-122.260;2023-06-22T11:23:58;14.50;75.50
54006;DHT22;39919;38.160;-122.260;2023-06-22T11:26:27;14.50;75.50
54006;DHT22;39919;38.160;-122.260;2023-06-22T11:28:56;14.50;75.30
54006;DHT22;39919;38.160;-122.260;2023-06-22T11:31:25;14.50;75.50
54006;DHT22;39919;38.160;-122.260;2023-06-22T11:33:54;14.50;75.60
54006;DHT22;39919;38.160;-122.260;2023-06-22T11:36:23;14.50;75.80
54006;DHT22;39919;38.160;-122.260;2023-06-22T11:38:57;14.50;75.70
54006;DHT22;39919;38.160;-122.260;2023-06-22T11:41:26;14.50;75.50
54006;DHT22;39919;38.160;-122.260;2023-06-22T11:43:55;14.50;75.50
54006;DHT22;39919;38.160;-122.260;2023-06-22T11:46:25;14.40;75.50
54006;DHT22;39919;38.160;-122.260;2023-06-22T11:48:54;14.50;75.40
54006;DHT22;39919;38.160;-122.260;2023-06-22T11:51:23;14.50;75.30
54006;DHT22;39919;38.160;-122.260;2023-06-22T11:53:54;14.50;75.30
54006;DHT22;39919;38.160;-122.260;2023-06-22T11:56:23;14.50;75.30
54006;DHT22;39919;38.160;-122.260;2023-06-22T11:58:57;14.50;75.10
54006;DHT22;39919;38.160;-122.260;2023-06-22T12:01:26;14.50;75.20
54006;DHT22;39919;38.160;-122.260;2023-06-22T12:03:55;14.50;75.60
54006;DHT22;39919;38.160;-122.260;2023-06-22T12:06:27;14.50;75.40
54006;DHT22;39919;38.160;-122.260;2023-06-22T12:08:58;14.50;75.70
54006;DHT22;39919;38.160;-122.260;2023-06-22T12:11:27;14.50;76.00
54006;DHT22;39919;38.160;-122.260;2023-06-22T12:13:56;14.50;76.10
54006;DHT22;39919;38.160;-122.260;2023-06-22T12:16:28;14.60;75.90
54006;DHT22;39919;38.160;-122.260;2023-06-22T12:18:57;14.50;75.70
54006;DHT22;39919;38.160;-122.260;2023-06-22T12:21:26;14.50;75.60
54006;DHT22;39919;38.160;-122.260;2023-06-22T12:24:00;14.50;75.50
54006;DHT22;39919;38.160;-122.260;2023-06-22T12:26:29;14.50;75.70
54006;DHT22;39919;38.160;-122.260;2023-06-22T12:28:59;14.50;75.60
54006;DHT22;39919;38.160;-122.260;2023-06-22T12:31:28;14.50;75.60
54006;DHT22;39919;38.160;-122.260;2023-06-22T12:33:57;14.50;75.80
54006;DHT22;39919;38.160;-122.260;2023-06-22T12:36:26;14.50;75.50
54006;DHT22;39919;38.160;-122.260;2023-06-22T12:38:55;14.50;75.50
54006;DHT22;39919;38.160;-122.260;2023-06-22T12:41:26;14.50;75.40
54006;DHT22;39919;38.160;-122.260;2023-06-22T12:43:55;14.50;75.80
54006;DHT22;39919;38.160;-122.260;2023-06-22T12:46:24;14.50;75.50
54006;DHT22;39919;38.160;-122.260;2023-06-22T12:48:55;14.50;75.50
54006;DHT22;39919;38.160;-122.260;2023-06-22T12:51:41;14.50;75.80
54006;DHT22;39919;38.160;-122.260;2023-06-22T12:54:11;14.50;75.70
54006;DHT22;39919;38.160;-122.260;2023-06-22T12:56:42;14.50;75.70
54006;DHT22;39919;38.160;-122.260;2023-06-22T12:59:12;14.50;76.10
54006;DHT22;39919;38.160;-122.260;2023-06-22T13:01:41;14.50;76.50
54006;DHT22;39919;38.160;-122.260;2023-06-22T13:04:10;14.50;76.60
54006;DHT22;39919;38.160;-122.260;2023-06-22T13:06:43;14.50;76.40
54006;DHT22;39919;38.160;-122.260;2023-06-22T13:09:15;14.50;76.20
54006;DHT22;39919;38.160;-122.260;2023-06-22T13:11:46;14.50;75.80
54006;DHT22;39919;38.160;-122.260;2023-06-22T13:14:19;14.50;75.80
54006;DHT22;39919;38.160;-122.260;2023-06-22T13:16:48;14.60;75.80
54006;DHT22;39919;38.160;-122.260;2023-06-22T13:19:17;14.60;75.60
54006;DHT22;39919;38.160;-122.260;2023-06-22T13:21:46;14.60;75.60
54006;DHT22;39919;38.160;-122.260;2023-06-22T13:24:15;14.60;75.60
54006;DHT22;39919;38.160;-122.260;2023-06-22T13:26:46;14.60;75.50
54006;DHT22;39919;38.160;-122.260;2023-06-22T13:29:16;14.70;75.50
54006;DHT22;39919;38.160;-122.260;2023-06-22T13:31:45;14.70;75.20
54006;DHT22;39919;38.160;-122.260;2023-06-22T13:34:16;14.70;75.10
54006;DHT22;39919;38.160;-122.260;2023-06-22T13:36:46;14.70;74.90
54006;DHT22;39919;38.160;-122.260;2023-06-22T13:39:15;14.80;74.90
54006;DHT22;39919;38.160;-122.260;2023-06-22T13:41:45;14.80;74.90
54006;DHT22;39919;38.160;-122.260;2023-06-22T13:44:14;14.80;74.90
54006;DHT22;39919;38.160;-122.260;2023-06-22T13:46:44;14.90;74.70
54006;DHT22;39919;38.160;-122.260;2023-06-22T13:49:13;14.90;74.50
54006;DHT22;39919;38.160;-122.260;2023-06-22T13:51:42;15.00;74.90
54006;DHT22;39919;38.160;-122.260;2023-06-22T13:54:11;15.00;74.50
54006;DHT22;39919;38.160;-122.260;2023-06-22T13:56:40;15.00;74.50
54006;DHT22;39919;38.160;-122.260;2023-06-22T13:59:11;15.00;74.40
54006;DHT22;39919;38.160;-122.260;2023-06-22T14:01:40;15.00;74.40
54006;DHT22;39919;38.160;-122.260;2023-06-22T14:04:10;15.10;74.30
54006;DHT22;39919;38.160;-122.260;2023-06-22T14:06:39;15.10;74.70
54006;DHT22;39919;38.160;-122.260;2023-06-22T14:09:08;15.10;74.70
54006;DHT22;39919;38.160;-122.260;2023-06-22T14:11:37;15.10;74.10
54006;DHT22;39919;38.160;-122.260;2023-06-22T14:14:09;15.20;74.00
54006;DHT22;39919;38.160;-122.260;2023-06-22T14:16:38;15.20;74.10
54006;DHT22;39919;38.160;-122.260;2023-06-22T14:19:07;15.20;74.10
54006;DHT22;39919;38.160;-122.260;2023-06-22T14:21:37;15.20;74.10
54006;DHT22;39919;38.160;-122.260;2023-06-22T14:24:06;15.30;74.10
54006;DHT22;39919;38.160;-122.260;2023-06-22T14:26:35;15.30;74.20
54006;DHT22;39919;38.160;-122.260;2023-06-22T14:29:04;15.30;74.10
54006;DHT22;39919;38.160;-122.260;2023-06-22T14:31:48;15.30;74.40
54006;DHT22;39919;38.160;-122.260;2023-06-22T14:34:17;15.30;74.10
54006;DHT22;39919;38.160;-122.260;2023-06-22T14:36:46;15.40;74.10
54006;DHT22;39919;38.160;-122.260;2023-06-22T14:39:16;15.40;73.80
54006;DHT22;39919;38.160;-122.260;2023-06-22T14:41:45;15.40;73.90
54006;DHT22;39919;38.160;-122.260;2023-06-22T14:44:14;15.40;74.00
54006;DHT22;39919;38.160;-122.260;2023-06-22T14:46:43;15.50;73.90
54006;DHT22;39919;38.160;-122.260;2023-06-22T14:49:14;15.50;74.10
54006;DHT22;39919;38.160;-122.260;2023-06-22T14:51:43;15.40;73.90
54006;DHT22;39919;38.160;-122.260;2023-06-22T14:54:12;15.50;74.00
54006;DHT22;39919;38.160;-122.260;2023-06-22T14:56:41;15.50;73.90
54006;DHT22;39919;38.160;-122.260;2023-06-22T14:59:11;15.50;73.90
54006;DHT22;39919;38.160;-122.260;2023-06-22T15:01:40;15.50;73.80
54006;DHT22;39919;38.160;-122.260;2023-06-22T15:04:09;15.60;73.90
54006;DHT22;39919;38.160;-122.260;2023-06-22T15:06:40;15.60;73.90
54006;DHT22;39919;38.160;-122.260;2023-06-22T15:09:09;15.70;73.70
54006;DHT22;39919;38.160;-122.260;2023-06-22T15:11:38;15.70;73.60
54006;DHT22;39919;38.160;-122.260;2023-06-22T15:14:07;15.70;73.30
54006;DHT22;39919;38.160;-122.260;2023-06-22T15:16:36;15.80;73.40
54006;DHT22;39919;38.160;-122.260;2023-06-22T15:19:05;15.80;73.90
54006;DHT22;39919;38.160;-122.260;2023-06-22T15:21:34;15.90;73.30
54006;DHT22;39919;38.160;-122.260;2023-06-22T15:24:05;15.90;73.40
54006;DHT22;39919;38.160;-122.260;2023-06-22T15:26:34;16.00;73.40
54006;DHT22;39919;38.160;-122.260;2023-06-22T15:29:04;16.00;73.40
54006;DHT22;39919;38.160;-122.260;2023-06-22T15:31:34;16.00;73.10
54006;DHT22;39919;38.160;-122.260;2023-06-22T15:34:03;16.10;73.00
54006;DHT22;39919;38.160;-122.260;2023-06-22T15:36:32;16.10;72.80
54006;DHT22;39919;38.160;-122.260;2023-06-22T15:39:01;16.10;72.60
54006;DHT22;39919;38.160;-122.260;2023-06-22T15:41:33;16.10;72.70
54006;DHT22;39919;38.160;-122.260;2023-06-22T15:44:02;16.10;72.50
54006;DHT22;39919;38.160;-122.260;2023-06-22T15:46:31;16.20;72.50
54006;DHT22;39919;38.160;-122.260;2023-06-22T15:49:00;16.20;72.70
54006;DHT22;39919;38.160;-122.260;2023-06-22T15:51:29;16.20;72.80
54006;DHT22;39919;38.160;-122.260;2023-06-22T15:53:58;16.30;72.60
54006;DHT22;39919;38.160;-122.260;2023-06-22T15:56:27;16.40;72.60
54006;DHT22;39919;38.160;-122.260;2023-06-22T15:58:58;16.40;72.40
54006;DHT22;39919;38.160;-122.260;2023-06-22T16:01:27;16.50;72.50
54006;DHT22;39919;38.160;-122.260;2023-06-22T16:03:57;16.50;72.30